Time;durP1;ratioP1;P1;durP2;ratioP2;P2;SDS_P1;SDS_P2;PMS_P1;PMS_P2;Temp;Humidity;BMP_temperature;BMP_pressure;BME280_temperature;BME280_humidity;BME280_pressure;Samples;Min_cycle;Max_cycle;Signal;HPM_P1;HPM_P2
2023/04/09 00:00:36;;;;;;;14.70;6.10;;;7.90;99.90;;;;;;5079107;28;20128;-74
2023/04/09 00:03:02;;;;;;;14.77;6.30;;;7.90;99.90;;;;;;5078861;28;20040;-74
2023/04/09 00:05:28;;;;;;;14.85;6.85;;;7.90;99.90;;;;;;5078448;28;20024;-74
2023/04/09 00:07:53;;;;;;;15.55;5.70;;;7.90;99.90;;;;;;5079080;28;20119;-74
2023/04/09 00:10:19;;;;;;;17.48;7.13;;;7.80;99.90;;;;;;5078447;28;20028;-74
2023/04/09 00:12:44;;;;;;;15.88;6.70;;;7.80;99.90;;;;;;5078544;28;20099;-74
2023/04/09 00:15:10;;;;;;;16.55;6.68;;;7.70;99.90;;;;;;5078264;28;20017;-74
2023/04/09 00:17:36;;;;;;;12.88;6.20;;;7.70;99.90;;;;;;5079281;28;20050;-74
2023/04/09 00:20:02;;;;;;;13.20;6.28;;;7.70;99.90;;;;;;5077999;28;20035;-74
2023/04/09 00:22:28;;;;;;;15.07;6.70;;;7.70;99.90;;;;;;5079352;28;20029;-74
2023/04/09 00:24:54;;;;;;;15.20;6.55;;;7.60;99.90;;;;;;5081405;28;20044;-73
2023/04/09 00:27:19;;;;;;;18.95;7.60;;;7.60;99.90;;;;;;5079412;28;20020;-73
2023/04/09 00:29:46;;;;;;;14.32;6.57;;;7.60;99.90;;;;;;5078523;28;20056;-73
2023/04/09 00:32:12;;;;;;;14.38;6.38;;;7.50;99.90;;;;;;5078455;28;20021;-73
2023/04/09 00:34:37;;;;;;;15.43;6.65;;;7.40;99.90;;;;;;5078544;28;20017;-73
2023/04/09 00:37:03;;;;;;;17.42;7.93;;;7.40;99.90;;;;;;5079583;28;20017;-73
2023/04/09 00:39:29;;;;;;;16.35;7.43;;;7.40;99.90;;;;;;5079132;28;20032;-73
2023/04/09 00:41:56;;;;;;;19.15;7.57;;;7.40;99.90;;;;;;5079901;28;20070;-73
2023/04/09 00:44:22;;;;;;;18.80;7.47;;;7.40;99.90;;;;;;5079556;28;20033;-73
2023/04/09 00:46:48;;;;;;;16.65;6.95;;;7.40;99.90;;;;;;5077705;28;20033;-73
2023/04/09 00:49:13;;;;;;;18.17;7.30;;;7.50;99.90;;;;;;5078406;28;20082;-73
2023/04/09 00:51:39;;;;;;;17.73;7.70;;;7.50;99.90;;;;;;5078259;28;20021;-73
2023/04/09 00:54:06;;;;;;;17.42;7.55;;;7.50;99.90;;;;;;5078388;28;20012;-73
2023/04/09 00:56:32;;;;;;;16.60;7.43;;;7.50;99.90;;;;;;5078217;28;20017;-73
2023/04/09 00:58:58;;;;;;;15.07;7.25;;;7.50;99.90;;;;;;5078390;28;20044;-73
2023/04/09 01:01:23;;;;;;;18.33;7.05;;;7.50;99.90;;;;;;5079059;28;20024;-73
2023/04/09 01:03:50;;;;;;;20.98;9.07;;;7.50;99.90;;;;;;5078607;28;20147;-73
2023/04/09 01:06:27;;;;;;;18.27;7.88;;;7.50;99.90;;;;;;5077938;28;20064;-73
2023/04/09 01:09:04;;;;;;;17.67;7.93;;;7.60;99.90;;;;;;5077536;28;20092;-73
2023/04/09 01:11:42;;;;;;;18.30;7.97;;;7.50;99.90;;;;;;5077965;28;20017;-74
2023/04/09 01:14:44;;;;;;;20.50;8.23;;;7.50;99.90;;;;;;5077919;28;20025;-74
2023/04/09 01:17:17;;;;;;;16.35;6.35;;;7.30;99.90;;;;;;5076567;28;20024;-73
2023/04/09 01:19:49;;;;;;;11.20;5.53;;;7.20;99.90;;;;;;5077671;28;20032;-73
2023/04/09 01:22:44;;;;;;;17.02;7.53;;;7.10;99.90;;;;;;5078518;28;20036;-73
2023/04/09 01:25:37;;;;;;;16.52;8.05;;;7.00;99.90;;;;;;5065102;28;20091;-73
2023/04/09 01:28:12;;;;;;;14.98;7.15;;;7.10;99.90;;;;;;5081779;28;20119;-73
2023/04/09 01:30:41;;;;;;;14.57;7.07;;;7.00;99.90;;;;;;5084529;28;20028;-73
2023/04/09 01:33:09;;;;;;;18.30;7.30;;;7.00;99.90;;;;;;5078454;28;20050;-73
2023/04/09 01:35:35;;;;;;;16.08;7.63;;;7.10;99.90;;;;;;5078229;28;20084;-73
2023/04/09 01:38:02;;;;;;;16.08;7.53;;;7.10;99.90;;;;;;5078725;28;20024;-73
2023/04/09 01:40:28;;;;;;;13.70;6.68;;;7.20;99.90;;;;;;5077197;28;20036;-73
2023/04/09 01:42:55;;;;;;;14.90;6.95;;;7.20;99.90;;;;;;5083574;28;20056;-73
2023/04/09 01:45:21;;;;;;;14.68;6.72;;;7.20;99.90;;;;;;5089837;28;20052;-73
2023/04/09 01:47:47;;;;;;;16.63;7.18;;;7.20;99.90;;;;;;5082321;28;20024;-73
2023/04/09 01:50:13;;;;;;;15.43;6.60;;;7.10;99.90;;;;;;5084733;28;20047;-73
2023/04/09 01:52:39;;;;;;;16.70;7.75;;;7.10;99.90;;;;;;5082307;28;20024;-73
2023/04/09 01:55:05;;;;;;;16.75;6.70;;;7.00;99.90;;;;;;5076539;28;20031;-73
2023/04/09 01:57:31;;;;;;;16.75;7.20;;;6.90;99.90;;;;;;5077907;28;20028;-73
2023/04/09 01:59:56;;;;;;;16.42;6.45;;;6.90;99.90;;;;;;5075314;28;20024;-73
2023/04/09 02:02:40;;;;;;;16.13;7.00;;;6.90;99.90;;;;;;5077525;28;20035;-73
2023/04/09 02:05:09;;;;;;;15.05;6.35;;;6.80;99.90;;;;;;5082442;28;20024;-73
2023/04/09 02:07:44;;;;;;;14.25;6.80;;;7.00;99.90;;;;;;5084932;28;20029;-72
2023/04/09 02:10:12;;;;;;;13.65;6.35;;;7.00;99.90;;;;;;5086233;28;20070;-72
2023/04/09 02:12:44;;;;;;;18.50;7.45;;;7.00;99.90;;;;;;5090492;28;20025;-72
2023/04/09 02:15:11;;;;;;;15.57;6.55;;;6.90;99.90;;;;;;5090390;28;20028;-72
2023/04/09 02:17:37;;;;;;;14.95;6.45;;;7.00;99.90;;;;;;5093136;28;20096;-73
2023/04/09 02:20:03;;;;;;;13.07;6.55;;;7.00;99.90;;;;;;5093734;28;20055;-73
2023/04/09 02:22:29;;;;;;;16.77;6.75;;;6.90;99.90;;;;;;5091971;28;20032;-73
2023/04/09 02:24:54;;;;;;;17.55;6.93;;;6.90;99.90;;;;;;5084301;28;20025;-73
2023/04/09 02:27:20;;;;;;;15.07;6.55;;;6.90;99.90;;;;;;5076295;28;20029;-73
2023/04/09 02:29:46;;;;;;;11.38;5.05;;;6.80;99.90;;;;;;5078276;28;20056;-73
2023/04/09 02:32:11;;;;;;;14.93;5.53;;;6.70;99.90;;;;;;5077968;28;20177;-73
2023/04/09 02:34:37;;;;;;;13.38;5.70;;;6.60;99.90;;;;;;5076532;28;20016;-73
2023/04/09 02:37:02;;;;;;;14.13;6.10;;;6.60;99.90;;;;;;5076530;28;20036;-73
2023/04/09 02:39:28;;;;;;;14.02;6.70;;;6.70;99.90;;;;;;5081867;22;20042;-69
2023/04/09 02:41:53;;;;;;;14.02;6.07;;;6.70;99.90;;;;;;5035948;28;20028;-69
2023/04/09 02:44:19;;;;;;;11.80;5.88;;;6.70;99.90;;;;;;5037288;28;20104;-69
2023/04/09 02:46:47;;;;;;;11.82;5.63;;;6.80;99.90;;;;;;5035903;28;20124;-69
2023/04/09 02:49:12;;;;;;;14.10;6.68;;;6.80;99.90;;;;;;5035820;28;20041;-69
2023/04/09 02:51:38;;;;;;;14.52;6.30;;;6.70;99.90;;;;;;5036911;28;20029;-71
2023/04/09 02:54:03;;;;;;;14.98;6.75;;;6.60;99.90;;;;;;5036585;28;20104;-71
2023/04/09 02:56:29;;;;;;;15.93;6.43;;;6.40;99.90;;;;;;5036633;28;20028;-71
2023/04/09 02:58:55;;;;;;;12.23;6.15;;;6.40;99.90;;;;;;5036582;28;20034;-71
2023/04/09 03:01:20;;;;;;;18.92;7.68;;;6.50;99.90;;;;;;5036650;28;20041;-71
2023/04/09 03:03:46;;;;;;;16.67;6.20;;;6.50;99.90;;;;;;5035666;28;20044;-71
2023/04/09 03:06:12;;;;;;;18.45;6.70;;;6.50;99.90;;;;;;5035655;28;20116;-71
2023/04/09 03:08:37;;;;;;;19.95;6.88;;;6.50;99.90;;;;;;5036763;28;20056;-71
2023/04/09 03:11:03;;;;;;;14.57;6.80;;;6.60;99.90;;;;;;5037253;28;20021;-71
2023/04/09 03:13:30;;;;;;;19.77;7.30;;;6.60;99.90;;;;;;5039556;28;20171;-71
2023/04/09 03:15:56;;;;;;;18.75;6.80;;;6.60;99.90;;;;;;5039490;28;20021;-71
2023/04/09 03:18:22;;;;;;;16.88;6.63;;;6.50;99.90;;;;;;5039285;28;20021;-71
2023/04/09 03:20:47;;;;;;;18.77;7.75;;;6.50;99.90;;;;;;5039475;28;20031;-71
2023/04/09 03:23:14;;;;;;;17.70;7.97;;;6.60;99.90;;;;;;5039569;28;20026;-71
2023/04/09 03:25:39;;;;;;;27.35;11.82;;;6.60;99.90;;;;;;5040062;28;20021;-71
2023/04/09 03:28:05;;;;;;;23.45;8.80;;;6.50;99.90;;;;;;5040082;28;20055;-71
2023/04/09 03:30:31;;;;;;;17.10;7.45;;;6.40;99.90;;;;;;5038896;28;20056;-71
2023/04/09 03:32:58;;;;;;;17.90;8.32;;;6.30;99.90;;;;;;5039092;28;20071;-71
2023/04/09 03:35:23;;;;;;;22.95;7.80;;;6.30;99.90;;;;;;5040089;28;20079;-71
2023/04/09 03:37:49;;;;;;;14.68;7.45;;;6.40;99.90;;;;;;5039903;28;20021;-71
2023/04/09 03:40:14;;;;;;;16.80;7.45;;;6.50;99.90;;;;;;5038773;28;20075;-71
2023/04/09 03:42:42;;;;;;;15.70;7.32;;;6.50;99.90;;;;;;5038940;28;20025;-71
2023/04/09 03:45:08;;;;;;;17.77;7.25;;;6.50;99.90;;;;;;5039211;28;20034;-71
2023/04/09 03:47:34;;;;;;;18.70;7.70;;;6.50;99.90;;;;;;5039199;28;20116;-71
2023/04/09 03:49:59;;;;;;;17.00;7.45;;;6.50;99.90;;;;;;5039810;28;20026;-71
2023/04/09 03:52:25;;;;;;;16.90;7.72;;;6.40;99.90;;;;;;5038845;28;20032;-72
2023/04/09 03:54:51;;;;;;;21.17;7.68;;;6.40;99.90;;;;;;5038620;28;20090;-71
2023/04/09 03:57:16;;;;;;;17.63;6.80;;;6.50;99.90;;;;;;5039736;28;20025;-71
2023/04/09 03:59:42;;;;;;;15.98;7.13;;;6.50;99.90;;;;;;5038636;28;20026;-71
2023/04/09 04:02:07;;;;;;;18.05;7.40;;;6.50;99.90;;;;;;5038498;28;20028;-71
2023/04/09 04:04:33;;;;;;;15.75;7.13;;;6.50;99.90;;;;;;5038445;28;20029;-71
2023/04/09 04:06:58;;;;;;;20.85;7.55;;;6.40;99.90;;;;;;5038913;28;20021;-72
2023/04/09 04:09:24;;;;;;;19.92;7.82;;;6.40;99.90;;;;;;5039594;28;20041;-71
2023/04/09 04:11:49;;;;;;;21.20;8.50;;;6.40;99.90;;;;;;5039468;28;20025;-71
2023/04/09 04:14:15;;;;;;;18.05;7.82;;;6.40;99.90;;;;;;5039194;28;20029;-71
2023/04/09 04:16:41;;;;;;;20.30;7.90;;;6.40;99.90;;;;;;5039103;28;20045;-71
2023/04/09 04:19:06;;;;;;;17.05;8.07;;;6.40;99.90;;;;;;5038590;28;20025;-71
2023/04/09 04:21:32;;;;;;;18.15;7.22;;;6.40;99.90;;;;;;5038125;28;20036;-71
2023/04/09 04:23:57;;;;;;;20.70;8.43;;;6.30;99.90;;;;;;5037707;28;20030;-71
2023/04/09 04:26:23;;;;;;;20.17;7.80;;;6.30;99.90;;;;;;5039015;28;20026;-71
2023/04/09 04:28:48;;;;;;;24.55;7.95;;;6.30;99.90;;;;;;5038357;28;20018;-71
2023/04/09 04:31:14;;;;;;;18.33;7.78;;;6.30;99.90;;;;;;5039100;28;20017;-72
2023/04/09 04:33:41;;;;;;;19.65;8.52;;;6.20;99.90;;;;;;5038299;28;20045;-71
2023/04/09 04:36:09;;;;;;;19.98;8.32;;;6.30;99.90;;;;;;5038022;28;20115;-71
2023/04/09 04:38:35;;;;;;;17.65;8.52;;;6.30;99.90;;;;;;5038436;28;20021;-71
2023/04/09 04:41:01;;;;;;;16.95;7.70;;;6.40;99.90;;;;;;5038730;28;20056;-71
2023/04/09 04:43:27;;;;;;;21.58;8.50;;;6.40;99.90;;;;;;5037761;28;20025;-71
2023/04/09 04:45:53;;;;;;;22.60;8.30;;;6.50;99.90;;;;;;5038947;28;20028;-71
2023/04/09 04:48:19;;;;;;;17.63;7.57;;;6.50;99.90;;;;;;5038454;28;20017;-71
2023/04/09 04:50:44;;;;;;;19.30;9.00;;;6.60;99.90;;;;;;5037902;28;20025;-71
2023/04/09 04:53:10;;;;;;;24.50;9.70;;;6.70;99.90;;;;;;5037646;28;20018;-71
2023/04/09 04:55:38;;;;;;;23.25;8.98;;;6.80;99.90;;;;;;5038326;28;20029;-69
2023/04/09 04:58:04;;;;;;;26.50;10.55;;;6.90;99.90;;;;;;5037721;28;20041;-69
2023/04/09 05:00:30;;;;;;;19.85;9.48;;;7.00;99.90;;;;;;5037635;28;20094;-69
2023/04/09 05:02:56;;;;;;;23.73;10.02;;;7.10;99.90;;;;;;5037672;28;20112;-69
2023/04/09 05:05:21;;;;;;;20.48;8.73;;;7.20;99.90;;;;;;5037476;28;20021;-69
2023/04/09 05:07:47;;;;;;;19.85;8.93;;;7.30;99.90;;;;;;5038185;28;20076;-69
2023/04/09 05:10:12;;;;;;;20.40;8.70;;;7.30;99.90;;;;;;5038016;28;20163;-69
2023/04/09 05:12:38;;;;;;;17.83;8.40;;;7.40;99.90;;;;;;5037883;28;20032;-69
2023/04/09 05:15:04;;;;;;;19.92;8.82;;;7.40;99.90;;;;;;5037479;28;20024;-69
2023/04/09 05:17:30;;;;;;;23.52;9.13;;;7.40;99.90;;;;;;5038182;28;20079;-69
2023/04/09 05:19:56;;;;;;;19.63;9.00;;;7.30;99.90;;;;;;5037433;28;20033;-69
2023/04/09 05:22:22;;;;;;;20.85;9.02;;;7.30;99.90;;;;;;5038162;28;20075;-69
2023/04/09 05:24:48;;;;;;;20.33;9.32;;;7.30;99.90;;;;;;5037110;28;20025;-69
2023/04/09 05:27:13;;;;;;;22.90;9.13;;;7.30;99.90;;;;;;5036959;28;20056;-69
2023/04/09 05:29:39;;;;;;;19.88;9.95;;;7.30;99.90;;;;;;5037283;28;20025;-70
2023/04/09 05:32:05;;;;;;;24.23;9.48;;;7.30;99.90;;;;;;5037591;28;20021;-69
2023/04/09 05:34:31;;;;;;;24.85;10.02;;;7.30;99.90;;;;;;5037028;28;20029;-69
2023/04/09 05:36:56;;;;;;;21.38;9.90;;;7.30;99.90;;;;;;5036794;28;20022;-69
2023/04/09 05:39:22;;;;;;;24.35;9.70;;;7.30;99.90;;;;;;5036597;28;20054;-70
2023/04/09 05:41:48;;;;;;;24.15;10.38;;;7.40;99.90;;;;;;5037121;28;20175;-69
2023/04/09 05:44:13;;;;;;;24.40;10.25;;;7.40;99.90;;;;;;5037030;28;20021;-69
2023/04/09 05:46:39;;;;;;;22.67;9.75;;;7.40;99.90;;;;;;5036636;28;20022;-69
2023/04/09 05:49:05;;;;;;;26.15;10.85;;;7.40;99.90;;;;;;5037564;28;20113;-69
2023/04/09 05:51:30;;;;;;;24.95;9.93;;;7.40;99.90;;;;;;5036852;28;20022;-69
2023/04/09 05:53:56;;;;;;;25.48;10.98;;;7.40;99.90;;;;;;5037569;28;20109;-69
2023/04/09 05:56:22;;;;;;;24.50;11.18;;;7.40;99.90;;;;;;5037566;28;20024;-69
2023/04/09 05:58:48;;;;;;;20.83;10.00;;;7.40;99.90;;;;;;5037331;28;20017;-69
2023/04/09 06:01:14;;;;;;;22.75;9.75;;;7.40;99.90;;;;;;5036797;28;20025;-69
2023/04/09 06:03:39;;;;;;;22.73;9.65;;;7.40;99.90;;;;;;5036575;28;20053;-69
2023/04/09 06:06:05;;;;;;;22.33;9.80;;;7.40;99.90;;;;;;5036361;28;20026;-69
2023/04/09 06:08:31;;;;;;;22.55;10.52;;;7.40;99.90;;;;;;5037075;28;20022;-70
2023/04/09 06:10:57;;;;;;;24.30;10.82;;;7.50;99.90;;;;;;5037230;28;20025;-69
2023/04/09 06:13:23;;;;;;;25.30;9.52;;;7.50;99.90;;;;;;5037112;28;20032;-69
2023/04/09 06:15:49;;;;;;;30.38;11.80;;;7.50;99.90;;;;;;5036190;28;20025;-69
2023/04/09 06:18:14;;;;;;;25.67;10.48;;;7.50;99.90;;;;;;5036391;28;20021;-69
2023/04/09 06:20:40;;;;;;;22.52;10.25;;;7.60;99.90;;;;;;5036445;28;20026;-69
2023/04/09 06:23:06;;;;;;;25.60;10.75;;;7.60;99.90;;;;;;5036599;28;20029;-69
2023/04/09 06:25:31;;;;;;;27.27;11.13;;;7.60;99.90;;;;;;5036505;28;20101;-69
2023/04/09 06:27:57;;;;;;;27.42;11.90;;;7.60;99.90;;;;;;5036182;28;20025;-69
2023/04/09 06:30:22;;;;;;;24.67;11.73;;;7.70;99.90;;;;;;5036002;28;20128;-69
2023/04/09 06:32:49;;;;;;;25.40;11.60;;;7.70;99.90;;;;;;5036152;28;20049;-69
2023/04/09 06:35:14;;;;;;;26.65;12.40;;;7.80;99.90;;;;;;5035940;28;20028;-69
2023/04/09 06:37:40;;;;;;;28.13;10.95;;;7.80;99.90;;;;;;5037151;28;20112;-69
2023/04/09 06:40:06;;;;;;;26.17;10.70;;;7.80;99.90;;;;;;5035993;28;20037;-70
2023/04/09 06:42:32;;;;;;;27.40;11.45;;;7.80;99.90;;;;;;5035534;28;20052;-69
2023/04/09 06:44:58;;;;;;;26.60;10.63;;;7.80;99.90;;;;;;5036407;28;20025;-69
2023/04/09 06:47:23;;;;;;;25.75;11.13;;;7.80;99.90;;;;;;5039920;28;20029;-69
2023/04/09 06:49:49;;;;;;;25.55;12.07;;;7.90;99.90;;;;;;5039825;28;20036;-69
2023/04/09 06:52:15;;;;;;;26.83;11.45;;;8.00;99.90;;;;;;5039917;28;20017;-69
2023/04/09 06:54:41;;;;;;;26.23;11.30;;;8.00;99.90;;;;;;5039885;28;20033;-69
2023/04/09 06:57:07;;;;;;;26.40;10.82;;;8.10;99.90;;;;;;5040615;28;20116;-69
2023/04/09 06:59:32;;;;;;;30.52;11.75;;;8.20;99.90;;;;;;5039851;28;20107;-69
2023/04/09 07:01:59;;;;;;;26.17;11.85;;;8.20;99.90;;;;;;5039662;28;20025;-69
2023/04/09 07:04:25;;;;;;;26.88;11.95;;;8.20;99.90;;;;;;5040553;28;20072;-69
2023/04/09 07:06:53;;;;;;;28.17;12.07;;;8.30;99.90;;;;;;5039903;28;20087;-69
2023/04/09 07:09:19;;;;;;;27.63;12.10;;;8.30;99.90;;;;;;5039812;28;20022;-69
2023/04/09 07:11:45;;;;;;;27.25;11.35;;;8.40;99.90;;;;;;5039871;28;20021;-69
2023/04/09 07:14:10;;;;;;;26.75;12.18;;;8.40;99.90;;;;;;5039519;28;20021;-69
2023/04/09 07:16:36;;;;;;;29.88;12.13;;;8.40;99.90;;;;;;5040370;28;20025;-69
2023/04/09 07:19:02;;;;;;;27.70;12.65;;;8.50;99.90;;;;;;5039605;28;20036;-69
2023/04/09 07:21:27;;;;;;;26.38;12.18;;;8.60;99.90;;;;;;5039723;28;20022;-69
2023/04/09 07:23:53;;;;;;;27.33;12.10;;;8.60;99.90;;;;;;5040558;28;20017;-68
2023/04/09 07:26:19;;;;;;;27.90;12.40;;;8.70;99.90;;;;;;5040110;28;20025;-68
2023/04/09 07:28:45;;;;;;;30.75;12.15;;;8.70;99.90;;;;;;5039236;28;20036;-68
2023/04/09 07:31:10;;;;;;;30.10;11.82;;;8.70;99.90;;;;;;5040094;28;20025;-68
2023/04/09 07:33:36;;;;;;;28.13;12.18;;;8.80;99.90;;;;;;5039410;28;20028;-67
2023/04/09 07:36:02;;;;;;;30.42;12.50;;;8.80;99.90;;;;;;5039409;28;20025;-68
2023/04/09 07:38:29;;;;;;;28.00;11.50;;;8.90;99.90;;;;;;5039740;28;20024;-68
2023/04/09 07:40:54;;;;;;;30.00;12.13;;;9.00;99.90;;;;;;5039308;28;20025;-67
2023/04/09 07:43:20;;;;;;;28.98;11.88;;;9.00;99.90;;;;;;5038974;28;20021;-68
2023/04/09 07:45:50;;;;;;;28.20;12.48;;;9.10;99.90;;;;;;5038892;28;20032;-68
2023/04/09 07:48:15;;;;;;;27.35;12.32;;;9.20;99.90;;;;;;5038979;28;20025;-68
2023/04/09 07:50:41;;;;;;;25.13;11.73;;;9.20;99.90;;;;;;5038595;28;20025;-68
2023/04/09 07:53:06;;;;;;;28.75;11.70;;;9.30;99.90;;;;;;5038755;28;20094;-67
2023/04/09 07:55:32;;;;;;;32.13;13.23;;;9.40;99.90;;;;;;5039002;28;20061;-68
2023/04/09 07:57:58;;;;;;;26.05;12.40;;;9.40;99.90;;;;;;5039196;28;20048;-68
2023/04/09 08:00:24;;;;;;;32.55;12.98;;;9.50;99.90;;;;;;5038697;28;20076;-68
2023/04/09 08:02:49;;;;;;;27.17;12.90;;;9.50;99.90;;;;;;5038817;28;20021;-68
2023/04/09 08:05:15;;;;;;;24.85;11.32;;;9.60;99.90;;;;;;5038948;28;20040;-68
2023/04/09 08:07:40;;;;;;;27.48;12.45;;;9.60;99.90;;;;;;5038822;28;20075;-68
2023/04/09 08:10:07;;;;;;;29.48;12.23;;;9.70;99.90;;;;;;5039098;28;20033;-68
2023/04/09 08:12:32;;;;;;;31.20;12.80;;;9.70;99.90;;;;;;5039494;28;20048;-68
2023/04/09 08:14:58;;;;;;;29.67;13.63;;;9.80;99.90;;;;;;5038778;28;20018;-70
2023/04/09 08:17:23;;;;;;;30.38;14.18;;;9.90;99.90;;;;;;5039078;28;20075;-70
2023/04/09 08:19:49;;;;;;;30.27;12.93;;;10.00;99.90;;;;;;5038867;28;20025;-68
2023/04/09 08:22:15;;;;;;;29.70;11.52;;;10.00;99.90;;;;;;5038232;28;20022;-68
2023/04/09 08:24:42;;;;;;;31.25;12.85;;;10.10;99.90;;;;;;5038729;28;20026;-69
2023/04/09 08:27:08;;;;;;;28.17;12.13;;;10.20;99.90;;;;;;5038148;28;20032;-70
2023/04/09 08:29:33;;;;;;;30.88;12.95;;;10.30;99.90;;;;;;5038063;28;20029;-69
2023/04/09 08:31:59;;;;;;;27.33;13.02;;;10.30;99.90;;;;;;5038156;28;20120;-69
2023/04/09 08:34:25;;;;;;;23.70;11.90;;;10.40;99.90;;;;;;5038491;28;20063;-69
2023/04/09 08:36:50;;;;;;;25.55;12.50;;;10.50;99.90;;;;;;5038171;28;20025;-69
2023/04/09 08:39:20;;;;;;;30.10;12.57;;;10.50;99.90;;;;;;5038203;28;20095;-68
2023/04/09 08:41:49;;;;;;;29.63;13.07;;;10.50;99.90;;;;;;5038130;28;20026;-70
2023/04/09 08:44:15;;;;;;;29.38;12.65;;;10.60;99.90;;;;;;5038430;28;20025;-71
2023/04/09 08:46:41;;;;;;;31.17;12.45;;;10.70;99.90;;;;;;5037981;28;20021;-71
2023/04/09 08:49:09;;;;;;;27.60;11.80;;;10.80;99.90;;;;;;5038471;28;20021;-71
2023/04/09 08:51:34;;;;;;;30.98;12.57;;;10.70;99.90;;;;;;5038093;28;20024;-71
2023/04/09 08:54:01;;;;;;;28.23;12.60;;;10.80;99.90;;;;;;5038078;28;20021;-72
2023/04/09 08:56:27;;;;;;;24.98;12.15;;;10.80;99.90;;;;;;5037493;28;20040;-71
2023/04/09 08:58:54;;;;;;;29.92;14.05;;;10.80;99.90;;;;;;5036684;28;20060;-71
2023/04/09 09:01:28;;;;;;;22.73;10.50;;;10.90;99.90;;;;;;5037911;28;20029;-71
2023/04/09 09:03:57;;;;;;;25.40;11.02;;;11.10;99.90;;;;;;5037588;28;20033;-71
2023/04/09 09:06:30;;;;;;;24.65;10.75;;;11.10;99.90;;;;;;5038226;28;20021;-71
2023/04/09 09:08:59;;;;;;;19.17;9.95;;;11.20;99.90;;;;;;5037699;28;20081;-70
2023/04/09 09:11:26;;;;;;;17.67;10.07;;;11.40;99.90;;;;;;5038167;28;20045;-71
2023/04/09 09:14:01;;;;;;;22.23;10.57;;;11.40;99.90;;;;;;5037681;28;20113;-71
2023/04/09 09:16:26;;;;;;;23.75;11.15;;;11.40;99.90;;;;;;5038123;28;20031;-70
2023/04/09 09:18:52;;;;;;;21.55;9.80;;;11.40;99.90;;;;;;5037431;28;20105;-72
2023/04/09 09:21:18;;;;;;;18.45;9.80;;;11.50;99.90;;;;;;5038002;28;20076;-71
2023/04/09 09:23:44;;;;;;;23.65;10.30;;;11.60;99.90;;;;;;5037200;28;20022;-71
2023/04/09 09:26:30;;;;;;;20.67;10.30;;;11.50;99.90;;;;;;5037985;28;20093;-71
2023/04/09 09:28:57;;;;;;;23.92;10.20;;;11.40;99.90;;;;;;5036933;28;20144;-71
2023/04/09 09:31:24;;;;;;;20.60;10.02;;;11.50;99.90;;;;;;5037380;28;20032;-71
2023/04/09 09:33:50;;;;;;;18.17;10.15;;;11.40;99.90;;;;;;5037377;28;20028;-71
2023/04/09 09:36:30;;;;;;;18.08;9.05;;;11.50;99.90;;;;;;5037688;28;20072;-71
2023/04/09 09:38:57;;;;;;;22.48;10.70;;;11.50;99.90;;;;;;5037445;28;20029;-71
2023/04/09 09:41:23;;;;;;;19.77;10.35;;;11.50;99.90;;;;;;5037228;28;20077;-71
2023/04/09 09:43:50;;;;;;;22.35;11.05;;;11.50;99.90;;;;;;5037906;28;20093;-71
2023/04/09 09:46:16;;;;;;;25.38;11.88;;;11.60;99.90;;;;;;5036896;28;20029;-71
2023/04/09 09:48:42;;;;;;;24.85;11.80;;;11.60;99.90;;;;;;5037601;28;20025;-71
2023/04/09 09:51:10;;;;;;;22.60;11.30;;;11.70;99.90;;;;;;5037356;28;20021;-71
2023/04/09 09:53:37;;;;;;;25.75;11.93;;;11.70;99.90;;;;;;5036740;28;20032;-71
2023/04/09 09:56:15;;;;;;;25.15;11.52;;;11.80;99.90;;;;;;5038882;28;20045;-71
2023/04/09 09:58:45;;;;;;;19.42;9.98;;;11.90;99.90;;;;;;5039289;28;20055;-71
2023/04/09 10:01:13;;;;;;;20.60;10.05;;;12.10;99.90;;;;;;5037773;28;20029;-71
2023/04/09 10:03:41;;;;;;;19.52;10.18;;;12.30;99.90;;;;;;5037625;28;20021;-70
2023/04/09 10:06:08;;;;;;;17.67;10.05;;;12.60;99.90;;;;;;5036924;28;20064;-70
2023/04/09 10:08:36;;;;;;;17.50;8.77;;;12.90;99.90;;;;;;5036581;28;20025;-70
2023/04/09 10:11:04;;;;;;;10.68;5.93;;;13.10;99.90;;;;;;5036338;28;20032;-71
2023/04/09 10:13:51;;;;;;;10.07;5.68;;;13.00;99.90;;;;;;5036652;28;20085;-71
2023/04/09 10:16:21;;;;;;;12.98;6.80;;;13.00;99.90;;;;;;5038350;28;20117;-71
2023/04/09 10:18:47;;;;;;;11.48;6.20;;;12.90;99.90;;;;;;5037110;28;20017;-71
2023/04/09 10:21:23;;;;;;;13.18;6.90;;;12.90;99.90;;;;;;5036656;28;20028;-71
2023/04/09 10:23:49;;;;;;;12.45;6.95;;;12.80;99.90;;;;;;5037482;28;20029;-70
2023/04/09 10:26:18;;;;;;;11.90;6.78;;;12.70;99.90;;;;;;5037223;28;20022;-71
2023/04/09 10:28:44;;;;;;;12.25;6.15;;;12.70;99.90;;;;;;5036295;28;20116;-71
2023/04/09 10:31:09;;;;;;;13.10;6.60;;;12.60;99.90;;;;;;5036430;28;20164;-71
2023/04/09 10:33:37;;;;;;;14.65;7.10;;;12.80;99.90;;;;;;5036426;28;20021;-70
2023/04/09 10:36:05;;;;;;;10.68;5.97;;;13.10;99.90;;;;;;5036034;28;20031;-71
2023/04/09 10:38:34;;;;;;;16.13;6.68;;;13.40;99.90;;;;;;5036365;28;20071;-71
2023/04/09 10:41:22;;;;;;;14.60;7.18;;;13.30;99.90;;;;;;5036784;28;20032;-71
2023/04/09 10:43:47;;;;;;;13.13;7.13;;;13.20;99.90;;;;;;5037306;28;20100;-70
2023/04/09 10:46:35;;;;;;;14.82;7.40;;;13.10;99.90;;;;;;5036554;28;20045;-71
2023/04/09 10:49:21;;;;;;;12.27;6.78;;;13.00;99.90;;;;;;5036930;28;20021;-70
2023/04/09 10:52:04;;;;;;;11.95;6.25;;;13.00;99.90;;;;;;5035950;28;20097;-71
2023/04/09 10:54:32;;;;;;;11.35;6.55;;;13.30;99.90;;;;;;5036822;28;20022;-71
2023/04/09 10:57:07;;;;;;;15.55;7.13;;;13.60;99.90;;;;;;5036314;28;20026;-71
2023/04/09 10:59:39;;;;;;;10.52;5.30;;;14.10;99.90;;;;;;5035872;28;20028;-71
2023/04/09 11:02:07;;;;;;;12.05;7.32;;;14.30;99.90;;;;;;5036217;28;20053;-70
2023/04/09 11:04:44;;;;;;;10.85;6.35;;;14.40;99.90;;;;;;5036341;28;20052;-70
2023/04/09 11:07:10;;;;;;;18.60;9.40;;;14.40;99.90;;;;;;5036786;28;20032;-71
2023/04/09 11:09:36;;;;;;;17.58;8.55;;;14.30;99.90;;;;;;5035995;28;20225;-71
2023/04/09 11:12:02;;;;;;;15.85;8.52;;;14.20;99.90;;;;;;5036695;28;20013;-71
2023/04/09 11:14:28;;;;;;;11.93;6.30;;;14.10;99.90;;;;;;5036109;28;20021;-71
2023/04/09 11:16:54;;;;;;;9.48;5.43;;;13.90;99.90;;;;;;5036608;28;20029;-71
2023/04/09 11:19:20;;;;;;;9.02;4.13;;;13.80;99.90;;;;;;5035457;28;20048;-71
2023/04/09 11:21:47;;;;;;;10.82;5.50;;;13.60;99.90;;;;;;5036816;28;20037;-70
2023/04/09 11:24:13;;;;;;;11.68;5.88;;;13.50;99.90;;;;;;5036265;28;20022;-70
2023/04/09 11:26:38;;;;;;;12.05;6.53;;;13.40;99.90;;;;;;5036640;28;20048;-70
2023/04/09 11:29:07;;;;;;;11.43;6.43;;;13.20;99.90;;;;;;5035663;28;20112;-70
2023/04/09 11:31:32;;;;;;;12.90;6.03;;;13.20;99.90;;;;;;5036724;28;20021;-71
2023/04/09 11:33:58;;;;;;;12.35;6.45;;;13.20;99.90;;;;;;5039600;28;20026;-71
2023/04/09 11:36:23;;;;;;;12.77;7.38;;;13.20;99.90;;;;;;5039192;28;20025;-70
2023/04/09 11:38:50;;;;;;;13.20;7.20;;;13.10;99.90;;;;;;5039024;28;20034;-70
2023/04/09 11:41:16;;;;;;;13.13;6.97;;;13.10;99.90;;;;;;5040161;28;20079;-70
2023/04/09 11:43:41;;;;;;;13.40;6.78;;;13.00;99.90;;;;;;5040137;28;20030;-70
2023/04/09 11:46:07;;;;;;;13.65;7.45;;;13.00;99.90;;;;;;5039330;28;20029;-70
2023/04/09 11:48:33;;;;;;;13.40;6.47;;;13.00;99.90;;;;;;5039685;28;20025;-71
2023/04/09 11:51:00;;;;;;;13.38;6.30;;;13.00;99.90;;;;;;5039649;28;20025;-71
2023/04/09 11:53:29;;;;;;;14.13;7.45;;;13.00;99.90;;;;;;5039730;28;20033;-70
2023/04/09 11:55:55;;;;;;;10.00;5.70;;;13.00;99.90;;;;;;5039247;28;20113;-70
2023/04/09 11:58:23;;;;;;;11.25;5.95;;;13.00;99.90;;;;;;5038910;28;20072;-70
2023/04/09 12:00:52;;;;;;;10.80;6.78;;;12.90;99.90;;;;;;5038612;28;20083;-70
2023/04/09 12:03:18;;;;;;;15.45;7.45;;;12.90;99.90;;;;;;5039591;28;20026;-71
2023/04/09 12:05:47;;;;;;;16.15;7.72;;;12.90;99.90;;;;;;5038683;28;20124;-70
2023/04/09 12:08:15;;;;;;;13.35;7.35;;;12.90;99.90;;;;;;5038841;28;20033;-70
2023/04/09 12:10:41;;;;;;;14.48;8.13;;;13.00;99.90;;;;;;5038486;28;20025;-70
2023/04/09 12:13:12;;;;;;;11.70;5.97;;;13.00;99.90;;;;;;5038509;28;20036;-70
2023/04/09 12:15:40;;;;;;;10.13;5.45;;;13.10;99.90;;;;;;5038538;28;20023;-71
2023/04/09 12:18:10;;;;;;;13.43;6.25;;;13.20;99.90;;;;;;5039156;28;20028;-71
2023/04/09 12:20:42;;;;;;;13.93;7.18;;;13.20;99.90;;;;;;5038593;28;20026;-71
2023/04/09 12:23:09;;;;;;;10.57;5.50;;;13.20;99.90;;;;;;5038943;28;20029;-71
2023/04/09 12:25:36;;;;;;;10.75;5.45;;;13.20;99.90;;;;;;5039087;28;20116;-70
2023/04/09 12:28:04;;;;;;;13.10;6.78;;;13.10;99.90;;;;;;5038624;28;20033;-70
2023/04/09 12:30:30;;;;;;;10.02;5.38;;;13.20;99.90;;;;;;5037949;28;20029;-70
2023/04/09 12:32:58;;;;;;;10.25;5.53;;;13.40;99.90;;;;;;5038690;28;20053;-71
2023/04/09 12:35:23;;;;;;;11.25;5.82;;;13.80;99.90;;;;;;5038197;28;20017;-70
2023/04/09 12:37:49;;;;;;;8.52;4.90;;;14.30;99.90;;;;;;5038583;28;20021;-70
2023/04/09 12:40:16;;;;;;;10.48;5.15;;;14.70;99.90;;;;;;5038097;28;20037;-70